sensor_id;sensor_type;location;lat;lon;timestamp;temperature;humidity
18305;DHT22;9278;52.156;21.048;2022-12-29T00:01:03;6.80;99.90
18305;DHT22;9278;52.156;21.048;2022-12-29T00:03:32;6.90;99.90
18305;DHT22;9278;52.156;21.048;2022-12-29T00:06:00;6.80;99.90
18305;DHT22;9278;52.156;21.048;2022-12-29T00:08:29;6.80;99.90
18305;DHT22;9278;52.156;21.048;2022-12-29T00:11:08;6.90;99.90
18305;DHT22;9278;52.156;21.048;2022-12-29T00:13:37;7.00;99.90
18305;DHT22;9278;52.156;21.048;2022-12-29T00:16:26;6.90;99.90
18305;DHT22;9278;52.156;21.048;2022-12-29T00:18:55;7.00;99.90
18305;DHT22;9278;52.156;21.048;2022-12-29T00:21:24;6.80;99.90
18305;DHT22;9278;52.156;21.048;2022-12-29T00:24:17;6.90;99.90
18305;DHT22;9278;52.156;21.048;2022-12-29T00:27:11;7.00;99.90
18305;DHT22;9278;52.156;21.048;2022-12-29T00:29:59;7.00;99.90
18305;DHT22;9278;52.156;21.048;2022-12-29T00:32:46;6.90;99.90
18305;DHT22;9278;52.156;21.048;2022-12-29T00:35:37;6.90;99.90
18305;DHT22;9278;52.156;21.048;2022-12-29T00:38:08;7.00;99.90
18305;DHT22;9278;52.156;21.048;2022-12-29T00:40:55;7.00;99.90
18305;DHT22;9278;52.156;21.048;2022-12-29T00:43:40;7.00;99.90
18305;DHT22;9278;52.156;21.048;2022-12-29T00:46:26;7.00;99.90
18305;DHT22;9278;52.156;21.048;2022-12-29T00:48:56;7.10;99.90
18305;DHT22;9278;52.156;21.048;2022-12-29T00:51:44;7.10;99.90
18305;DHT22;9278;52.156;21.048;2022-12-29T00:54:12;6.90;99.90
18305;DHT22;9278;52.156;21.048;2022-12-29T00:56:41;6.90;99.90
18305;DHT22;9278;52.156;21.048;2022-12-29T00:59:10;7.00;99.90
18305;DHT22;9278;52.156;21.048;2022-12-29T01:01:38;6.90;99.90
18305;DHT22;9278;52.156;21.048;2022-12-29T01:04:09;6.90;99.90
18305;DHT22;9278;52.156;21.048;2022-12-29T01:06:39;6.80;99.90
18305;DHT22;9278;52.156;21.048;2022-12-29T01:09:08;6.90;99.90
18305;DHT22;9278;52.156;21.048;2022-12-29T01:11:59;6.90;99.90
18305;DHT22;9278;52.156;21.048;2022-12-29T01:14:28;6.80;99.90
18305;DHT22;9278;52.156;21.048;2022-12-29T01:16:57;6.90;99.90
18305;DHT22;9278;52.156;21.048;2022-12-29T01:19:26;6.90;99.90
18305;DHT22;9278;52.156;21.048;2022-12-29T01:21:55;6.80;99.90
18305;DHT22;9278;52.156;21.048;2022-12-29T01:24:24;6.80;99.90
18305;DHT22;9278;52.156;21.048;2022-12-29T01:26:53;6.80;99.90
18305;DHT22;9278;52.156;21.048;2022-12-29T01:29:22;6.90;99.90
18305;DHT22;9278;52.156;21.048;2022-12-29T01:31:51;6.80;99.90
18305;DHT22;9278;52.156;21.048;2022-12-29T01:34:19;6.80;99.90
18305;DHT22;9278;52.156;21.048;2022-12-29T01:36:49;6.70;99.90
18305;DHT22;9278;52.156;21.048;2022-12-29T01:39:17;6.80;99.90
18305;DHT22;9278;52.156;21.048;2022-12-29T01:41:45;6.70;99.90
18305;DHT22;9278;52.156;21.048;2022-12-29T01:47:34;6.90;99.90
18305;DHT22;9278;52.156;21.048;2022-12-29T01:50:08;7.00;99.90
18305;DHT22;9278;52.156;21.048;2022-12-29T01:52:42;6.90;99.90
18305;DHT22;9278;52.156;21.048;2022-12-29T01:55:11;6.80;99.90
18305;DHT22;9278;52.156;21.048;2022-12-29T01:57:44;6.90;99.90
18305;DHT22;9278;52.156;21.048;2022-12-29T02:00:15;6.90;99.90
18305;DHT22;9278;52.156;21.048;2022-12-29T02:02:48;6.90;99.90
18305;DHT22;9278;52.156;21.048;2022-12-29T02:05:23;6.90;99.90
18305;DHT22;9278;52.156;21.048;2022-12-29T02:07:54;6.90;99.90
18305;DHT22;9278;52.156;21.048;2022-12-29T02:10:25;6.90;1.00
18305;DHT22;9278;52.156;21.048;2022-12-29T02:12:55;6.80;99.90
18305;DHT22;9278;52.156;21.048;2022-12-29T02:15:45;6.80;99.90
18305;DHT22;9278;52.156;21.048;2022-12-29T02:18:25;6.90;99.90
18305;DHT22;9278;52.156;21.048;2022-12-29T02:21:24;6.90;99.90
18305;DHT22;9278;52.156;21.048;2022-12-29T02:24:22;6.80;99.90
18305;DHT22;9278;52.156;21.048;2022-12-29T02:27:07;6.80;99.90
18305;DHT22;9278;52.156;21.048;2022-12-29T02:29:58;6.80;99.90
18305;DHT22;9278;52.156;21.048;2022-12-29T02:32:39;6.70;99.90
18305;DHT22;9278;52.156;21.048;2022-12-29T02:35:17;6.70;99.90
18305;DHT22;9278;52.156;21.048;2022-12-29T02:37:56;6.70;99.90
18305;DHT22;9278;52.156;21.048;2022-12-29T02:40:32;6.80;99.90
18305;DHT22;9278;52.156;21.048;2022-12-29T02:43:11;6.60;99.90
18305;DHT22;9278;52.156;21.048;2022-12-29T02:45:47;6.60;1.00
18305;DHT22;9278;52.156;21.048;2022-12-29T02:48:22;6.50;1.00
18305;DHT22;9278;52.156;21.048;2022-12-29T02:50:59;6.50;1.00
18305;DHT22;9278;52.156;21.048;2022-12-29T02:53:30;6.40;99.90
18305;DHT22;9278;52.156;21.048;2022-12-29T02:56:18;6.50;99.90
18305;DHT22;9278;52.156;21.048;2022-12-29T02:58:47;6.20;1.00
18305;DHT22;9278;52.156;21.048;2022-12-29T03:01:29;6.00;1.00
18305;DHT22;9278;52.156;21.048;2022-12-29T03:04:23;6.30;1.00
18305;DHT22;9278;52.156;21.048;2022-12-29T03:06:59;5.80;1.00
18305;DHT22;9278;52.156;21.048;2022-12-29T03:09:37;5.80;1.00
18305;DHT22;9278;52.156;21.048;2022-12-29T03:12:13;5.60;1.00
18305;DHT22;9278;52.156;21.048;2022-12-29T03:14:49;5.60;99.90
18305;DHT22;9278;52.156;21.048;2022-12-29T03:17:45;5.50;1.00
18305;DHT22;9278;52.156;21.048;2022-12-29T03:20:20;5.60;1.00
18305;DHT22;9278;52.156;21.048;2022-12-29T03:22:56;5.50;1.00
18305;DHT22;9278;52.156;21.048;2022-12-29T03:25:33;5.40;1.00
18305;DHT22;9278;52.156;21.048;2022-12-29T03:28:08;5.50;1.00
18305;DHT22;9278;52.156;21.048;2022-12-29T03:30:42;5.50;99.90
18305;DHT22;9278;52.156;21.048;2022-12-29T03:33:15;5.50;99.90
18305;DHT22;9278;52.156;21.048;2022-12-29T03:35:48;5.60;99.90
18305;DHT22;9278;52.156;21.048;2022-12-29T03:38:21;5.50;1.00
18305;DHT22;9278;52.156;21.048;2022-12-29T03:40:55;5.40;99.90
18305;DHT22;9278;52.156;21.048;2022-12-29T03:43:27;5.50;1.00
18305;DHT22;9278;52.156;21.048;2022-12-29T03:45:56;5.40;1.00
18305;DHT22;9278;52.156;21.048;2022-12-29T03:48:24;5.30;1.00
18305;DHT22;9278;52.156;21.048;2022-12-29T03:50:56;5.10;99.90
18305;DHT22;9278;52.156;21.048;2022-12-29T03:53:24;5.20;99.90
18305;DHT22;9278;52.156;21.048;2022-12-29T03:55:52;5.00;43.00
18305;DHT22;9278;52.156;21.048;2022-12-29T03:58:21;5.10;99.90
18305;DHT22;9278;52.156;21.048;2022-12-29T04:01:04;5.30;1.00
18305;DHT22;9278;52.156;21.048;2022-12-29T04:03:36;5.70;1.00
18305;DHT22;9278;52.156;21.048;2022-12-29T04:06:06;5.40;99.90
18305;DHT22;9278;52.156;21.048;2022-12-29T04:08:40;5.30;99.90
18305;DHT22;9278;52.156;21.048;2022-12-29T04:11:08;5.10;1.00
18305;DHT22;9278;52.156;21.048;2022-12-29T04:13:37;5.10;1.00
18305;DHT22;9278;52.156;21.048;2022-12-29T04:16:09;5.20;1.00
18305;DHT22;9278;52.156;21.048;2022-12-29T04:18:38;5.20;1.00
18305;DHT22;9278;52.156;21.048;2022-12-29T04:21:07;5.20;1.00
18305;DHT22;9278;52.156;21.048;2022-12-29T04:23:39;5.30;1.00
18305;DHT22;9278;52.156;21.048;2022-12-29T04:26:09;5.20;1.00
18305;DHT22;9278;52.156;21.048;2022-12-29T04:28:50;5.20;1.00
18305;DHT22;9278;52.156;21.048;2022-12-29T04:31:37;5.20;1.00
18305;DHT22;9278;52.156;21.048;2022-12-29T04:34:07;5.10;1.00
18305;DHT22;9278;52.156;21.048;2022-12-29T04:36:36;5.10;1.00
18305;DHT22;9278;52.156;21.048;2022-12-29T04:39:07;5.20;1.00
18305;DHT22;9278;52.156;21.048;2022-12-29T04:41:37;5.20;1.00
18305;DHT22;9278;52.156;21.048;2022-12-29T04:44:08;5.10;1.00
18305;DHT22;9278;52.156;21.048;2022-12-29T04:46:37;5.10;1.00
18305;DHT22;9278;52.156;21.048;2022-12-29T04:49:09;5.00;1.00
18305;DHT22;9278;52.156;21.048;2022-12-29T04:51:58;5.00;1.00
18305;DHT22;9278;52.156;21.048;2022-12-29T04:54:26;5.00;1.00
18305;DHT22;9278;52.156;21.048;2022-12-29T04:57:06;5.10;1.00
18305;DHT22;9278;52.156;21.048;2022-12-29T04:59:37;5.10;1.00
18305;DHT22;9278;52.156;21.048;2022-12-29T05:02:07;5.10;1.00
18305;DHT22;9278;52.156;21.048;2022-12-29T05:04:35;5.10;1.00
18305;DHT22;9278;52.156;21.048;2022-12-29T05:07:05;5.10;1.00
18305;DHT22;9278;52.156;21.048;2022-12-29T05:09:33;5.10;1.00
18305;DHT22;9278;52.156;21.048;2022-12-29T05:12:02;5.20;1.00
18305;DHT22;9278;52.156;21.048;2022-12-29T05:14:32;5.10;1.00
18305;DHT22;9278;52.156;21.048;2022-12-29T05:17:02;5.00;1.00
18305;DHT22;9278;52.156;21.048;2022-12-29T05:19:30;5.00;1.00
18305;DHT22;9278;52.156;21.048;2022-12-29T05:21:59;4.90;1.00
18305;DHT22;9278;52.156;21.048;2022-12-29T05:24:30;5.00;1.00
18305;DHT22;9278;52.156;21.048;2022-12-29T05:26:59;5.10;1.00
18305;DHT22;9278;52.156;21.048;2022-12-29T05:29:46;5.00;1.00
18305;DHT22;9278;52.156;21.048;2022-12-29T05:32:15;5.10;1.00
18305;DHT22;9278;52.156;21.048;2022-12-29T05:34:44;5.10;1.00
18305;DHT22;9278;52.156;21.048;2022-12-29T05:37:13;5.20;1.00
18305;DHT22;9278;52.156;21.048;2022-12-29T05:39:43;5.10;99.90
18305;DHT22;9278;52.156;21.048;2022-12-29T05:42:12;5.10;1.00
18305;DHT22;9278;52.156;21.048;2022-12-29T05:44:51;5.10;1.00
18305;DHT22;9278;52.156;21.048;2022-12-29T05:47:34;5.00;99.90
18305;DHT22;9278;52.156;21.048;2022-12-29T05:50:11;5.10;99.90
18305;DHT22;9278;52.156;21.048;2022-12-29T05:53:07;4.90;99.90
18305;DHT22;9278;52.156;21.048;2022-12-29T05:55:39;5.00;99.90
18305;DHT22;9278;52.156;21.048;2022-12-29T05:58:15;5.10;99.90
18305;DHT22;9278;52.156;21.048;2022-12-29T06:00:44;5.20;99.90
18305;DHT22;9278;52.156;21.048;2022-12-29T06:03:13;5.10;99.90
18305;DHT22;9278;52.156;21.048;2022-12-29T06:05:44;5.60;99.90
18305;DHT22;9278;52.156;21.048;2022-12-29T06:08:14;5.30;99.90
18305;DHT22;9278;52.156;21.048;2022-12-29T06:10:44;5.40;99.90
18305;DHT22;9278;52.156;21.048;2022-12-29T06:13:13;5.50;99.90
18305;DHT22;9278;52.156;21.048;2022-12-29T06:15:43;5.60;99.90
18305;DHT22;9278;52.156;21.048;2022-12-29T06:18:12;5.50;99.90
18305;DHT22;9278;52.156;21.048;2022-12-29T06:20:46;5.60;99.90
18305;DHT22;9278;52.156;21.048;2022-12-29T06:23:17;5.60;99.90
18305;DHT22;9278;52.156;21.048;2022-12-29T06:25:48;5.70;99.90
18305;DHT22;9278;52.156;21.048;2022-12-29T06:28:16;5.70;99.90
18305;DHT22;9278;52.156;21.048;2022-12-29T06:30:45;5.90;99.90
18305;DHT22;9278;52.156;21.048;2022-12-29T06:33:14;5.80;99.90
18305;DHT22;9278;52.156;21.048;2022-12-29T06:35:43;5.90;99.90
18305;DHT22;9278;52.156;21.048;2022-12-29T06:38:14;5.80;99.90
18305;DHT22;9278;52.156;21.048;2022-12-29T06:40:42;5.80;99.90
18305;DHT22;9278;52.156;21.048;2022-12-29T06:43:22;5.90;99.90
18305;DHT22;9278;52.156;21.048;2022-12-29T06:46:10;5.80;99.90
18305;DHT22;9278;52.156;21.048;2022-12-29T06:48:39;5.70;99.90
18305;DHT22;9278;52.156;21.048;2022-12-29T06:51:08;5.70;1.00
18305;DHT22;9278;52.156;21.048;2022-12-29T06:53:37;5.80;96.00
18305;DHT22;9278;52.156;21.048;2022-12-29T06:56:05;5.80;1.00
18305;DHT22;9278;52.156;21.048;2022-12-29T06:58:35;6.00;1.00
18305;DHT22;9278;52.156;21.048;2022-12-29T07:01:03;6.10;1.00
18305;DHT22;9278;52.156;21.048;2022-12-29T07:03:32;6.50;1.00
18305;DHT22;9278;52.156;21.048;2022-12-29T07:06:00;6.10;1.00
18305;DHT22;9278;52.156;21.048;2022-12-29T07:08:28;6.20;1.00
18305;DHT22;9278;52.156;21.048;2022-12-29T07:10:56;6.30;99.90
18305;DHT22;9278;52.156;21.048;2022-12-29T07:13:25;6.20;99.90
18305;DHT22;9278;52.156;21.048;2022-12-29T07:15:54;6.20;99.90
18305;DHT22;9278;52.156;21.048;2022-12-29T07:18:22;6.30;99.90
18305;DHT22;9278;52.156;21.048;2022-12-29T07:20:51;6.30;99.90
18305;DHT22;9278;52.156;21.048;2022-12-29T07:23:19;6.30;99.90
18305;DHT22;9278;52.156;21.048;2022-12-29T07:25:47;6.50;99.90
18305;DHT22;9278;52.156;21.048;2022-12-29T07:28:15;6.40;99.90
18305;DHT22;9278;52.156;21.048;2022-12-29T07:30:46;6.40;99.90
18305;DHT22;9278;52.156;21.048;2022-12-29T07:33:15;6.40;99.90
18305;DHT22;9278;52.156;21.048;2022-12-29T07:35:43;6.50;99.90
18305;DHT22;9278;52.156;21.048;2022-12-29T07:38:12;6.50;99.90
18305;DHT22;9278;52.156;21.048;2022-12-29T07:40:41;6.50;99.90
18305;DHT22;9278;52.156;21.048;2022-12-29T07:43:09;6.50;99.90
18305;DHT22;9278;52.156;21.048;2022-12-29T07:45:43;6.60;99.90
18305;DHT22;9278;52.156;21.048;2022-12-29T07:48:12;6.50;99.90
18305;DHT22;9278;52.156;21.048;2022-12-29T07:50:41;6.60;99.90
18305;DHT22;9278;52.156;21.048;2022-12-29T07:53:10;6.70;99.90
18305;DHT22;9278;52.156;21.048;2022-12-29T07:55:38;6.80;99.90
18305;DHT22;9278;52.156;21.048;2022-12-29T07:58:06;6.80;99.90
18305;DHT22;9278;52.156;21.048;2022-12-29T08:00:35;6.60;99.90
18305;DHT22;9278;52.156;21.048;2022-12-29T08:03:05;6.70;99.90
18305;DHT22;9278;52.156;21.048;2022-12-29T08:05:33;6.80;99.90
18305;DHT22;9278;52.156;21.048;2022-12-29T08:08:04;6.80;99.90
18305;DHT22;9278;52.156;21.048;2022-12-29T08:10:32;6.90;99.90
18305;DHT22;9278;52.156;21.048;2022-12-29T08:13:00;7.00;99.90
18305;DHT22;9278;52.156;21.048;2022-12-29T08:15:28;7.10;99.90
18305;DHT22;9278;52.156;21.048;2022-12-29T08:17:58;7.10;99.90
18305;DHT22;9278;52.156;21.048;2022-12-29T08:20:27;7.30;99.90
18305;DHT22;9278;52.156;21.048;2022-12-29T08:22:55;7.40;99.90
18305;DHT22;9278;52.156;21.048;2022-12-29T08:25:25;7.30;99.90
18305;DHT22;9278;52.156;21.048;2022-12-29T08:27:53;7.20;99.90
18305;DHT22;9278;52.156;21.048;2022-12-29T08:30:21;7.30;99.90
18305;DHT22;9278;52.156;21.048;2022-12-29T08:32:50;7.50;99.90
18305;DHT22;9278;52.156;21.048;2022-12-29T08:35:18;7.40;99.90
18305;DHT22;9278;52.156;21.048;2022-12-29T08:37:47;7.50;99.90
18305;DHT22;9278;52.156;21.048;2022-12-29T08:40:15;7.50;99.90
18305;DHT22;9278;52.156;21.048;2022-12-29T08:42:45;7.50;99.90
18305;DHT22;9278;52.156;21.048;2022-12-29T08:45:13;7.60;99.90
18305;DHT22;9278;52.156;21.048;2022-12-29T08:47:41;7.70;99.90
18305;DHT22;9278;52.156;21.048;2022-12-29T08:50:10;7.90;99.90
18305;DHT22;9278;52.156;21.048;2022-12-29T08:52:38;7.90;99.90
18305;DHT22;9278;52.156;21.048;2022-12-29T08:55:07;8.00;99.90
18305;DHT22;9278;52.156;21.048;2022-12-29T08:57:36;7.90;99.90
18305;DHT22;9278;52.156;21.048;2022-12-29T09:00:16;8.10;99.90
18305;DHT22;9278;52.156;21.048;2022-12-29T09:02:44;8.20;99.90
18305;DHT22;9278;52.156;21.048;2022-12-29T09:05:13;8.20;99.90
18305;DHT22;9278;52.156;21.048;2022-12-29T09:07:41;8.10;99.90
18305;DHT22;9278;52.156;21.048;2022-12-29T09:10:09;8.20;99.90
18305;DHT22;9278;52.156;21.048;2022-12-29T09:12:38;7.80;99.90
18305;DHT22;9278;52.156;21.048;2022-12-29T09:15:08;8.00;99.90
18305;DHT22;9278;52.156;21.048;2022-12-29T09:17:37;8.00;99.90
18305;DHT22;9278;52.156;21.048;2022-12-29T09:20:09;8.10;99.90
18305;DHT22;9278;52.156;21.048;2022-12-29T09:22:37;8.20;99.90
18305;DHT22;9278;52.156;21.048;2022-12-29T09:25:07;8.10;99.90
18305;DHT22;9278;52.156;21.048;2022-12-29T09:27:36;8.20;99.90
18305;DHT22;9278;52.156;21.048;2022-12-29T09:30:07;8.30;99.90
18305;DHT22;9278;52.156;21.048;2022-12-29T09:32:37;8.30;99.90
18305;DHT22;9278;52.156;21.048;2022-12-29T09:35:11;8.30;99.90
18305;DHT22;9278;52.156;21.048;2022-12-29T09:37:39;8.20;99.90
18305;DHT22;9278;52.156;21.048;2022-12-29T09:43:12;8.30;99.90
18305;DHT22;9278;52.156;21.048;2022-12-29T09:45:49;8.20;99.90
18305;DHT22;9278;52.156;21.048;2022-12-29T09:48:25;8.20;99.90
18305;DHT22;9278;52.156;21.048;2022-12-29T09:50:57;8.20;99.90
18305;DHT22;9278;52.156;21.048;2022-12-29T09:53:28;8.50;99.90
18305;DHT22;9278;52.156;21.048;2022-12-29T09:56:00;8.30;99.90
18305;DHT22;9278;52.156;21.048;2022-12-29T09:58:34;8.20;99.90
18305;DHT22;9278;52.156;21.048;2022-12-29T10:01:05;8.50;99.90
18305;DHT22;9278;52.156;21.048;2022-12-29T10:03:45;8.50;99.90
18305;DHT22;9278;52.156;21.048;2022-12-29T10:06:19;8.30;99.90
18305;DHT22;9278;52.156;21.048;2022-12-29T10:08:57;8.40;99.90
18305;DHT22;9278;52.156;21.048;2022-12-29T10:11:39;8.40;99.90
18305;DHT22;9278;52.156;21.048;2022-12-29T10:14:25;8.30;99.90
18305;DHT22;9278;52.156;21.048;2022-12-29T10:17:03;8.20;99.90
18305;DHT22;9278;52.156;21.048;2022-12-29T10:20:10;8.30;99.90
18305;DHT22;9278;52.156;21.048;2022-12-29T10:22:53;8.30;99.90
18305;DHT22;9278;52.156;21.048;2022-12-29T10:25:26;8.30;99.90
18305;DHT22;9278;52.156;21.048;2022-12-29T10:28:04;8.10;99.90
18305;DHT22;9278;52.156;21.048;2022-12-29T10:30:35;8.30;99.90
18305;DHT22;9278;52.156;21.048;2022-12-29T10:33:07;8.40;99.90
18305;DHT22;9278;52.156;21.048;2022-12-29T10:35:39;8.50;99.90
18305;DHT22;9278;52.156;21.048;2022-12-29T10:38:15;8.60;99.90
18305;DHT22;9278;52.156;21.048;2022-12-29T10:40:49;8.70;99.90
18305;DHT22;9278;52.156;21.048;2022-12-29T10:43:24;8.60;99.90
18305;DHT22;9278;52.156;21.048;2022-12-29T10:45:55;8.70;99.90
18305;DHT22;9278;52.156;21.048;2022-12-29T10:48:27;9.00;99.90
18305;DHT22;9278;52.156;21.048;2022-12-29T10:51:01;9.00;99.90
18305;DHT22;9278;52.156;21.048;2022-12-29T10:53:35;9.30;99.90
18305;DHT22;9278;52.156;21.048;2022-12-29T10:56:11;9.10;99.90
18305;DHT22;9278;52.156;21.048;2022-12-29T10:58:43;9.00;99.90
18305;DHT22;9278;52.156;21.048;2022-12-29T11:01:16;9.10;99.90
18305;DHT22;9278;52.156;21.048;2022-12-29T11:03:57;9.10;99.90
18305;DHT22;9278;52.156;21.048;2022-12-29T11:06:29;9.00;99.90
18305;DHT22;9278;52.156;21.048;2022-12-29T11:08:59;9.20;99.90
18305;DHT22;9278;52.156;21.048;2022-12-29T11:11:34;9.20;99.90
18305;DHT22;9278;52.156;21.048;2022-12-29T11:14:11;9.10;99.90
18305;DHT22;9278;52.156;21.048;2022-12-29T11:16:41;9.00;99.90
18305;DHT22;9278;52.156;21.048;2022-12-29T11:19:21;9.10;99.90
18305;DHT22;9278;52.156;21.048;2022-12-29T11:21:51;9.00;99.90
18305;DHT22;9278;52.156;21.048;2022-12-29T11:24:22;9.10;99.90
18305;DHT22;9278;52.156;21.048;2022-12-29T11:26:52;9.20;99.90
18305;DHT22;9278;52.156;21.048;2022-12-29T11:29:26;9.20;99.90
18305;DHT22;9278;52.156;21.048;2022-12-29T11:31:55;9.20;99.90
18305;DHT22;9278;52.156;21.048;2022-12-29T11:34:30;9.20;99.90
18305;DHT22;9278;52.156;21.048;2022-12-29T11:37:03;9.20;99.90
18305;DHT22;9278;52.156;21.048;2022-12-29T11:39:37;9.20;99.90
18305;DHT22;9278;52.156;21.048;2022-12-29T11:42:13;9.10;99.90
18305;DHT22;9278;52.156;21.048;2022-12-29T11:44:45;9.10;99.90
18305;DHT22;9278;52.156;21.048;2022-12-29T11:47:23;9.20;99.90
18305;DHT22;9278;52.156;21.048;2022-12-29T11:49:57;9.20;99.90
18305;DHT22;9278;52.156;21.048;2022-12-29T11:52:31;9.20;99.90
18305;DHT22;9278;52.156;21.048;2022-12-29T11:55:04;9.20;99.90
18305;DHT22;9278;52.156;21.048;2022-12-29T11:57:34;9.20;99.90
18305;DHT22;9278;52.156;21.048;2022-12-29T12:00:14;9.30;99.90
18305;DHT22;9278;52.156;21.048;2022-12-29T12:02:48;9.20;99.90
18305;DHT22;9278;52.156;21.048;2022-12-29T12:05:26;9.30;99.90
18305;DHT22;9278;52.156;21.048;2022-12-29T12:08:03;9.30;99.90
18305;DHT22;9278;52.156;21.048;2022-12-29T12:10:36;9.40;99.90
18305;DHT22;9278;52.156;21.048;2022-12-29T12:13:12;9.40;99.90
18305;DHT22;9278;52.156;21.048;2022-12-29T12:15:49;9.30;99.90
18305;DHT22;9278;52.156;21.048;2022-12-29T12:18:32;9.30;99.90
18305;DHT22;9278;52.156;21.048;2022-12-29T12:21:08;9.40;99.90
18305;DHT22;9278;52.156;21.048;2022-12-29T12:23:46;9.40;99.90
18305;DHT22;9278;52.156;21.048;2022-12-29T12:26:18;9.40;99.90
18305;DHT22;9278;52.156;21.048;2022-12-29T12:28:52;9.50;99.90
18305;DHT22;9278;52.156;21.048;2022-12-29T12:31:33;9.50;99.90
18305;DHT22;9278;52.156;21.048;2022-12-29T12:34:11;9.50;99.90
18305;DHT22;9278;52.156;21.048;2022-12-29T12:37:00;9.50;99.90
18305;DHT22;9278;52.156;21.048;2022-12-29T12:39:39;9.50;99.90
18305;DHT22;9278;52.156;21.048;2022-12-29T12:42:21;9.60;99.90
18305;DHT22;9278;52.156;21.048;2022-12-29T12:45:02;9.60;99.90
18305;DHT22;9278;52.156;21.048;2022-12-29T12:47:49;9.60;99.90
18305;DHT22;9278;52.156;21.048;2022-12-29T12:50:49;9.60;99.90
18305;DHT22;9278;52.156;21.048;2022-12-29T12:53:36;9.60;99.90
18305;DHT22;9278;52.156;21.048;2022-12-29T12:56:28;9.60;99.90
18305;DHT22;9278;52.156;21.048;2022-12-29T12:59:04;9.50;99.90
18305;DHT22;9278;52.156;21.048;2022-12-29T13:01:42;9.50;99.90
18305;DHT22;9278;52.156;21.048;2022-12-29T13:04:32;9.60;99.90
18305;DHT22;9278;52.156;21.048;2022-12-29T13:07:10;9.50;99.90
18305;DHT22;9278;52.156;21.048;2022-12-29T13:09:52;9.60;99.90
18305;DHT22;9278;52.156;21.048;2022-12-29T13:12:34;9.60;99.90
18305;DHT22;9278;52.156;21.048;2022-12-29T13:15:16;9.60;99.90
18305;DHT22;9278;52.156;21.048;2022-12-29T13:17:53;9.60;99.90
18305;DHT22;9278;52.156;21.048;2022-12-29T13:20:30;9.60;99.90
18305;DHT22;9278;52.156;21.048;2022-12-29T13:23:04;9.60;99.90
18305;DHT22;9278;52.156;21.048;2022-12-29T13:25:39;9.60;99.90
18305;DHT22;9278;52.156;21.048;2022-12-29T13:28:17;9.60;99.90
18305;DHT22;9278;52.156;21.048;2022-12-29T13:30:53;9.60;99.90
18305;DHT22;9278;52.156;21.048;2022-12-29T13:33:32;9.60;99.90
18305;DHT22;9278;52.156;21.048;2022-12-29T13:36:07;9.60;99.90
18305;DHT22;9278;52.156;21.048;2022-12-29T13:38:40;9.60;99.90
18305;DHT22;9278;52.156;21.048;2022-12-29T13:41:14;9.60;99.90
18305;DHT22;9278;52.156;21.048;2022-12-29T13:43:47;9.50;99.90
18305;DHT22;9278;52.156;21.048;2022-12-29T13:46:21;9.60;99.90
18305;DHT22;9278;52.156;21.048;2022-12-29T13:48:54;9.60;99.90
18305;DHT22;9278;52.156;21.048;2022-12-29T13:51:23;9.60;99.90
18305;DHT22;9278;52.156;21.048;2022-12-29T13:54:03;9.60;99.90
18305;DHT22;9278;52.156;21.048;2022-12-29T13:56:38;9.60;99.90
18305;DHT22;9278;52.156;21.048;2022-12-29T13:59:17;9.60;99.90
18305;DHT22;9278;52.156;21.048;2022-12-29T14:01:53;9.40;99.90
18305;DHT22;9278;52.156;21.048;2022-12-29T14:04:24;9.60;99.90
18305;DHT22;9278;52.156;21.048;2022-12-29T14:07:02;9.60;99.90
18305;DHT22;9278;52.156;21.048;2022-12-29T14:09:42;9.60;99.90
18305;DHT22;9278;52.156;21.048;2022-12-29T14:12:21;9.60;99.90
18305;DHT22;9278;52.156;21.048;2022-12-29T14:15:03;9.50;99.90
18305;DHT22;9278;52.156;21.048;2022-12-29T14:17:42;9.60;99.90
18305;DHT22;9278;52.156;21.048;2022-12-29T14:20:18;9.60;99.90
18305;DHT22;9278;52.156;21.048;2022-12-29T14:22:59;9.60;99.90
18305;DHT22;9278;52.156;21.048;2022-12-29T14:26:00;9.60;99.90
18305;DHT22;9278;52.156;21.048;2022-12-29T14:28:38;9.60;99.90
18305;DHT22;9278;52.156;21.048;2022-12-29T14:31:33;9.60;99.90
18305;DHT22;9278;52.156;21.048;2022-12-29T14:34:28;9.60;99.90
18305;DHT22;9278;52.156;21.048;2022-12-29T14:36:58;9.60;99.90
18305;DHT22;9278;52.156;21.048;2022-12-29T14:39:31;9.60;99.90
18305;DHT22;9278;52.156;21.048;2022-12-29T14:42:01;9.50;99.90
18305;DHT22;9278;52.156;21.048;2022-12-29T14:44:31;9.40;99.90
18305;DHT22;9278;52.156;21.048;2022-12-29T14:47:05;9.40;99.90
18305;DHT22;9278;52.156;21.048;2022-12-29T14:49:41;9.40;99.90
18305;DHT22;9278;52.156;21.048;2022-12-29T14:52:17;9.40;99.90
18305;DHT22;9278;52.156;21.048;2022-12-29T14:54:49;9.40;99.90
18305;DHT22;9278;52.156;21.048;2022-12-29T15:00:19;9.40;99.90
18305;DHT22;9278;52.156;21.048;2022-12-29T15:02:53;9.40;99.90
18305;DHT22;9278;52.156;21.048;2022-12-29T15:05:28;9.40;99.90
18305;DHT22;9278;52.156;21.048;2022-12-29T15:07:58;9.40;99.90
18305;DHT22;9278;52.156;21.048;2022-12-29T15:10:34;9.40;99.90
18305;DHT22;9278;52.156;21.048;2022-12-29T15:13:05;9.40;99.90
18305;DHT22;9278;52.156;21.048;2022-12-29T15:15:41;9.40;99.90
18305;DHT22;9278;52.156;21.048;2022-12-29T15:18:24;9.40;99.90
18305;DHT22;9278;52.156;21.048;2022-12-29T15:20:55;9.40;99.90
18305;DHT22;9278;52.156;21.048;2022-12-29T15:23:24;9.40;99.90
18305;DHT22;9278;52.156;21.048;2022-12-29T15:25:55;9.20;99.90
18305;DHT22;9278;52.156;21.048;2022-12-29T15:28:25;9.10;99.90
18305;DHT22;9278;52.156;21.048;2022-12-29T15:30:55;9.00;99.90
18305;DHT22;9278;52.156;21.048;2022-12-29T15:33:27;8.90;99.90
18305;DHT22;9278;52.156;21.048;2022-12-29T15:36:02;8.90;99.90
18305;DHT22;9278;52.156;21.048;2022-12-29T15:38:30;8.90;99.90
18305;DHT22;9278;52.156;21.048;2022-12-29T15:41:15;8.90;99.90
18305;DHT22;9278;52.156;21.048;2022-12-29T15:43:53;8.80;99.90
18305;DHT22;9278;52.156;21.048;2022-12-29T15:46:27;8.90;99.90
18305;DHT22;9278;52.156;21.048;2022-12-29T15:48:59;8.80;99.90
18305;DHT22;9278;52.156;21.048;2022-12-29T15:51:29;8.80;99.90
18305;DHT22;9278;52.156;21.048;2022-12-29T15:53:58;8.70;99.90
18305;DHT22;9278;52.156;21.048;2022-12-29T15:56:28;8.70;99.90
18305;DHT22;9278;52.156;21.048;2022-12-29T15:58:57;8.60;99.90
18305;DHT22;9278;52.156;21.048;2022-12-29T16:01:28;8.60;99.90
18305;DHT22;9278;52.156;21.048;2022-12-29T16:04:00;8.50;99.90
18305;DHT22;9278;52.156;21.048;2022-12-29T16:06:31;8.50;99.90
18305;DHT22;9278;52.156;21.048;2022-12-29T16:09:02;8.40;99.90
18305;DHT22;9278;52.156;21.048;2022-12-29T16:11:34;8.50;99.90
18305;DHT22;9278;52.156;21.048;2022-12-29T16:14:07;8.50;99.90
18305;DHT22;9278;52.156;21.048;2022-12-29T16:16:39;8.50;99.90
18305;DHT22;9278;52.156;21.048;2022-12-29T16:19:13;8.50;99.90
18305;DHT22;9278;52.156;21.048;2022-12-29T16:21:42;8.40;99.90
18305;DHT22;9278;52.156;21.048;2022-12-29T16:24:14;8.40;99.90
18305;DHT22;9278;52.156;21.048;2022-12-29T16:26:48;8.40;99.90
18305;DHT22;9278;52.156;21.048;2022-12-29T16:29:19;8.50;99.90
18305;DHT22;9278;52.156;21.048;2022-12-29T16:31:52;8.40;99.90
18305;DHT22;9278;52.156;21.048;2022-12-29T16:34:31;8.40;99.90
18305;DHT22;9278;52.156;21.048;2022-12-29T16:37:01;8.40;99.90
18305;DHT22;9278;52.156;21.048;2022-12-29T16:39:34;8.30;99.90
18305;DHT22;9278;52.156;21.048;2022-12-29T16:42:33;8.30;99.90